sensor_id;sensor_type;location;lat;lon;timestamp;pressure;altitude;pressure_sealevel;temperature;humidity
70815;BME280;58428;49.478;10.986;2023-01-29T00:00:22;99626.75;;;-0.40;100.00
70815;BME280;58428;49.478;10.986;2023-01-29T00:02:50;99628.59;;;-0.40;100.00
70815;BME280;58428;49.478;10.986;2023-01-29T00:05:16;99636.75;;;-0.53;100.00
70815;BME280;58428;49.478;10.986;2023-01-29T00:07:43;99638.13;;;-0.51;100.00
70815;BME280;58428;49.478;10.986;2023-01-29T00:10:09;99629.72;;;-0.48;100.00
70815;BME280;58428;49.478;10.986;2023-01-29T00:12:40;99627.94;;;-0.65;100.00
70815;BME280;58428;49.478;10.986;2023-01-29T00:15:06;99633.94;;;-0.58;100.00
70815;BME280;58428;49.478;10.986;2023-01-29T00:17:33;99636.63;;;-0.47;100.00
70815;BME280;58428;49.478;10.986;2023-01-29T00:19:59;99636.38;;;-0.57;100.00
70815;BME280;58428;49.478;10.986;2023-01-29T00:22:25;99629.94;;;-0.49;100.00
70815;BME280;58428;49.478;10.986;2023-01-29T00:24:50;99633.50;;;-0.55;100.00
70815;BME280;58428;49.478;10.986;2023-01-29T00:27:16;99627.81;;;-0.59;100.00
70815;BME280;58428;49.478;10.986;2023-01-29T00:29:41;99627.03;;;-0.59;100.00
70815;BME280;58428;49.478;10.986;2023-01-29T00:32:07;99622.13;;;-0.62;100.00
70815;BME280;58428;49.478;10.986;2023-01-29T00:34:34;99622.28;;;-0.57;100.00
70815;BME280;58428;49.478;10.986;2023-01-29T00:37:02;99620.66;;;-0.58;100.00
70815;BME280;58428;49.478;10.986;2023-01-29T00:39:30;99620.81;;;-0.53;100.00
70815;BME280;58428;49.478;10.986;2023-01-29T00:42:06;99615.59;;;-0.60;100.00
70815;BME280;58428;49.478;10.986;2023-01-29T00:44:50;99606.53;;;-0.70;100.00
70815;BME280;58428;49.478;10.986;2023-01-29T00:47:23;99614.44;;;-0.81;100.00
70815;BME280;58428;49.478;10.986;2023-01-29T00:49:55;99615.84;;;-0.79;100.00
70815;BME280;58428;49.478;10.986;2023-01-29T00:52:22;99608.59;;;-0.72;100.00
70815;BME280;58428;49.478;10.986;2023-01-29T00:54:48;99610.59;;;-0.68;100.00
70815;BME280;58428;49.478;10.986;2023-01-29T00:57:14;99603.88;;;-0.70;100.00
70815;BME280;58428;49.478;10.986;2023-01-29T00:59:39;99612.25;;;-0.84;100.00
70815;BME280;58428;49.478;10.986;2023-01-29T01:02:05;99607.00;;;-0.73;100.00
70815;BME280;58428;49.478;10.986;2023-01-29T01:04:49;99604.13;;;-0.60;100.00
70815;BME280;58428;49.478;10.986;2023-01-29T01:07:14;99609.75;;;-0.68;100.00
70815;BME280;58428;49.478;10.986;2023-01-29T01:09:40;99608.75;;;-0.67;100.00
70815;BME280;58428;49.478;10.986;2023-01-29T01:12:24;99610.53;;;-0.79;100.00
70815;BME280;58428;49.478;10.986;2023-01-29T01:14:49;99608.59;;;-0.72;100.00
70815;BME280;58428;49.478;10.986;2023-01-29T01:17:16;99611.72;;;-0.75;100.00
70815;BME280;58428;49.478;10.986;2023-01-29T01:19:42;99615.06;;;-0.68;100.00
70815;BME280;58428;49.478;10.986;2023-01-29T01:22:09;99612.34;;;-0.62;100.00
70815;BME280;58428;49.478;10.986;2023-01-29T01:24:38;99611.25;;;-0.72;100.00
70815;BME280;58428;49.478;10.986;2023-01-29T01:27:04;99612.25;;;-0.84;100.00
70815;BME280;58428;49.478;10.986;2023-01-29T01:29:33;99604.28;;;-0.84;100.00
70815;BME280;58428;49.478;10.986;2023-01-29T01:31:58;99614.91;;;-0.84;100.00
70815;BME280;58428;49.478;10.986;2023-01-29T01:34:25;99607.16;;;-0.86;100.00
70815;BME280;58428;49.478;10.986;2023-01-29T01:36:54;99609.00;;;-0.86;100.00
70815;BME280;58428;49.478;10.986;2023-01-29T01:39:23;99609.22;;;-0.88;100.00
70815;BME280;58428;49.478;10.986;2023-01-29T01:41:50;99601.00;;;-0.98;100.00
70815;BME280;58428;49.478;10.986;2023-01-29T01:47:37;99615.75;;;-1.02;100.00
70815;BME280;58428;49.478;10.986;2023-01-29T01:50:15;99610.00;;;-0.99;100.00
70815;BME280;58428;49.478;10.986;2023-01-29T01:52:46;99606.81;;;-1.07;100.00
70815;BME280;58428;49.478;10.986;2023-01-29T01:55:15;99617.66;;;-1.09;100.00
70815;BME280;58428;49.478;10.986;2023-01-29T01:57:43;99612.81;;;-1.11;100.00
70815;BME280;58428;49.478;10.986;2023-01-29T02:00:14;99617.38;;;-1.18;100.00
70815;BME280;58428;49.478;10.986;2023-01-29T02:02:45;99613.13;;;-1.19;100.00
70815;BME280;58428;49.478;10.986;2023-01-29T02:05:31;99617.63;;;-1.20;100.00
70815;BME280;58428;49.478;10.986;2023-01-29T02:08:23;99604.69;;;-1.16;100.00
70815;BME280;58428;49.478;10.986;2023-01-29T02:11:11;99605.38;;;-1.21;100.00
70815;BME280;58428;49.478;10.986;2023-01-29T02:13:39;99604.88;;;-1.29;100.00
70815;BME280;58428;49.478;10.986;2023-01-29T02:16:07;99607.28;;;-1.28;100.00
70815;BME280;58428;49.478;10.986;2023-01-29T02:18:33;99611.94;;;-1.23;100.00
70815;BME280;58428;49.478;10.986;2023-01-29T02:30:16;99614.28;;;-1.15;100.00
70815;BME280;58428;49.478;10.986;2023-01-29T02:32:58;99610.16;;;-1.11;100.00
70815;BME280;58428;49.478;10.986;2023-01-29T02:35:30;99604.78;;;-1.23;100.00
70815;BME280;58428;49.478;10.986;2023-01-29T02:38:08;99589.44;;;-1.21;100.00
70815;BME280;58428;49.478;10.986;2023-01-29T02:40:56;99589.28;;;-1.08;100.00
70815;BME280;58428;49.478;10.986;2023-01-29T02:46:31;99591.50;;;-1.23;100.00
70815;BME280;58428;49.478;10.986;2023-01-29T02:49:30;99589.44;;;-1.21;100.00
70815;BME280;58428;49.478;10.986;2023-01-29T02:52:23;99595.13;;;-1.17;100.00
70815;BME280;58428;49.478;10.986;2023-01-29T02:54:58;99596.28;;;-1.13;100.00
70815;BME280;58428;49.478;10.986;2023-01-29T02:57:36;99599.31;;;-1.10;100.00
70815;BME280;58428;49.478;10.986;2023-01-29T03:00:21;99603.31;;;-1.19;100.00
70815;BME280;58428;49.478;10.986;2023-01-29T03:05:30;99591.59;;;-1.29;100.00
70815;BME280;58428;49.478;10.986;2023-01-29T03:08:06;99593.16;;;-1.22;100.00
70815;BME280;58428;49.478;10.986;2023-01-29T03:10:39;99596.97;;;-1.18;100.00
70815;BME280;58428;49.478;10.986;2023-01-29T03:16:10;99607.94;;;-1.32;100.00
70815;BME280;58428;49.478;10.986;2023-01-29T03:19:08;99610.47;;;-1.19;100.00
70815;BME280;58428;49.478;10.986;2023-01-29T03:21:44;99609.06;;;-1.22;100.00
70815;BME280;58428;49.478;10.986;2023-01-29T03:27:44;99619.44;;;-1.20;100.00
70815;BME280;58428;49.478;10.986;2023-01-29T03:30:33;99615.47;;;-1.11;100.00
70815;BME280;58428;49.478;10.986;2023-01-29T03:33:20;99605.22;;;-1.08;100.00
70815;BME280;58428;49.478;10.986;2023-01-29T03:36:43;99612.13;;;-1.07;100.00
70815;BME280;58428;49.478;10.986;2023-01-29T03:38:52;99624.91;;;-1.15;100.00
70815;BME280;58428;49.478;10.986;2023-01-29T03:41:32;99620.63;;;-1.16;100.00
70815;BME280;58428;49.478;10.986;2023-01-29T03:47:11;99610.16;;;-1.11;100.00
70815;BME280;58428;49.478;10.986;2023-01-29T03:55:26;99617.88;;;-1.28;100.00
70815;BME280;58428;49.478;10.986;2023-01-29T03:57:59;99621.75;;;-1.24;100.00
70815;BME280;58428;49.478;10.986;2023-01-29T04:00:41;99623.44;;;-1.29;100.00
70815;BME280;58428;49.478;10.986;2023-01-29T04:03:18;99626.09;;;-1.29;100.00
70815;BME280;58428;49.478;10.986;2023-01-29T04:05:50;99627.41;;;-1.38;100.00
70815;BME280;58428;49.478;10.986;2023-01-29T04:08:27;99633.31;;;-1.36;100.00
70815;BME280;58428;49.478;10.986;2023-01-29T04:10:56;99624.53;;;-1.37;100.00
70815;BME280;58428;49.478;10.986;2023-01-29T04:13:23;99633.47;;;-1.49;100.00
70815;BME280;58428;49.478;10.986;2023-01-29T04:15:53;99638.03;;;-1.38;100.00
70815;BME280;58428;49.478;10.986;2023-01-29T04:18:22;99634.78;;;-1.40;100.00
70815;BME280;58428;49.478;10.986;2023-01-29T04:20:48;99636.19;;;-1.38;100.00
70815;BME280;58428;49.478;10.986;2023-01-29T04:23:22;99639.00;;;-1.33;100.00
70815;BME280;58428;49.478;10.986;2023-01-29T04:25:55;99630.31;;;-1.22;100.00
70815;BME280;58428;49.478;10.986;2023-01-29T04:31:25;99613.41;;;-1.27;100.00
70815;BME280;58428;49.478;10.986;2023-01-29T04:36:40;99618.84;;;-1.22;100.00
70815;BME280;58428;49.478;10.986;2023-01-29T04:39:39;99618.25;;;-1.24;100.00
70815;BME280;58428;49.478;10.986;2023-01-29T04:44:44;99632.00;;;-1.27;100.00
70815;BME280;58428;49.478;10.986;2023-01-29T04:50:27;99636.72;;;-1.47;100.00
70815;BME280;58428;49.478;10.986;2023-01-29T04:55:41;99630.75;;;-1.43;100.00
70815;BME280;58428;49.478;10.986;2023-01-29T04:58:29;99630.16;;;-1.45;100.00
70815;BME280;58428;49.478;10.986;2023-01-29T05:00:57;99621.72;;;-1.42;100.00
70815;BME280;58428;49.478;10.986;2023-01-29T05:03:26;99620.63;;;-1.34;100.00
70815;BME280;58428;49.478;10.986;2023-01-29T05:05:54;99605.38;;;-1.39;100.00
70815;BME280;58428;49.478;10.986;2023-01-29T05:08:22;99608.63;;;-1.37;100.00
70815;BME280;58428;49.478;10.986;2023-01-29T05:10:49;99601.84;;;-1.33;100.00
70815;BME280;58428;49.478;10.986;2023-01-29T05:13:18;99608.31;;;-1.29;100.00
70815;BME280;58428;49.478;10.986;2023-01-29T05:15:51;99603.38;;;-1.25;100.00
70815;BME280;58428;49.478;10.986;2023-01-29T05:18:19;99609.72;;;-1.26;100.00
70815;BME280;58428;49.478;10.986;2023-01-29T05:20:46;99610.75;;;-1.27;100.00
70815;BME280;58428;49.478;10.986;2023-01-29T05:23:17;99616.50;;;-1.30;100.00
70815;BME280;58428;49.478;10.986;2023-01-29T05:25:46;99612.38;;;-1.26;100.00
70815;BME280;58428;49.478;10.986;2023-01-29T05:28:13;99601.44;;;-1.18;100.00
70815;BME280;58428;49.478;10.986;2023-01-29T05:30:44;99598.38;;;-1.15;100.00
70815;BME280;58428;49.478;10.986;2023-01-29T05:33:18;99583.59;;;-1.11;100.00
70815;BME280;58428;49.478;10.986;2023-01-29T05:35:44;99585.16;;;-1.04;100.00
70815;BME280;58428;49.478;10.986;2023-01-29T05:38:11;99581.72;;;-0.93;100.00
70815;BME280;58428;49.478;10.986;2023-01-29T05:40:37;99578.09;;;-1.10;100.00
70815;BME280;58428;49.478;10.986;2023-01-29T05:43:03;99571.00;;;-1.16;100.00
70815;BME280;58428;49.478;10.986;2023-01-29T05:45:30;99568.09;;;-1.14;100.00
70815;BME280;58428;49.478;10.986;2023-01-29T05:47:58;99557.19;;;-1.07;100.00
70815;BME280;58428;49.478;10.986;2023-01-29T05:50:25;99565.44;;;-1.14;100.00
70815;BME280;58428;49.478;10.986;2023-01-29T05:53:01;99568.00;;;-1.19;100.00
70815;BME280;58428;49.478;10.986;2023-01-29T05:55:28;99564.22;;;-1.12;100.00
70815;BME280;58428;49.478;10.986;2023-01-29T05:57:54;99557.09;;;-1.00;100.00
70815;BME280;58428;49.478;10.986;2023-01-29T06:00:20;99569.53;;;-1.12;100.00
70815;BME280;58428;49.478;10.986;2023-01-29T06:02:47;99564.34;;;-1.07;100.00
70815;BME280;58428;49.478;10.986;2023-01-29T06:05:12;99564.66;;;-1.15;100.00
70815;BME280;58428;49.478;10.986;2023-01-29T06:07:38;99558.97;;;-1.18;100.00
70815;BME280;58428;49.478;10.986;2023-01-29T06:10:13;99562.53;;;-1.24;100.00
70815;BME280;58428;49.478;10.986;2023-01-29T06:12:39;99569.09;;;-1.27;100.00
70815;BME280;58428;49.478;10.986;2023-01-29T06:15:05;99568.78;;;-1.19;100.00
70815;BME280;58428;49.478;10.986;2023-01-29T06:17:30;99565.97;;;-1.06;100.00
70815;BME280;58428;49.478;10.986;2023-01-29T06:19:56;99562.53;;;-0.95;100.00
70815;BME280;58428;49.478;10.986;2023-01-29T06:22:21;99566.72;;;-0.88;100.00
70815;BME280;58428;49.478;10.986;2023-01-29T06:24:49;99570.91;;;-0.80;100.00
70815;BME280;58428;49.478;10.986;2023-01-29T06:27:14;99571.06;;;-0.75;100.00
70815;BME280;58428;49.478;10.986;2023-01-29T06:29:40;99568.09;;;-0.97;100.00
70815;BME280;58428;49.478;10.986;2023-01-29T06:32:06;99573.09;;;-0.89;100.00
70815;BME280;58428;49.478;10.986;2023-01-29T06:34:31;99571.63;;;-1.03;100.00
70815;BME280;58428;49.478;10.986;2023-01-29T06:36:57;99578.41;;;-1.07;100.00
70815;BME280;58428;49.478;10.986;2023-01-29T06:39:23;99581.81;;;-1.00;100.00
70815;BME280;58428;49.478;10.986;2023-01-29T06:41:49;99587.13;;;-1.00;100.00
70815;BME280;58428;49.478;10.986;2023-01-29T06:44:15;99586.09;;;-0.99;100.00
70815;BME280;58428;49.478;10.986;2023-01-29T06:46:40;99590.13;;;-1.25;100.00
70815;BME280;58428;49.478;10.986;2023-01-29T06:49:07;99595.22;;;-1.24;100.00
70815;BME280;58428;49.478;10.986;2023-01-29T06:51:34;99596.22;;;-1.25;100.00
70815;BME280;58428;49.478;10.986;2023-01-29T06:54:00;99592.97;;;-1.09;100.00
70815;BME280;58428;49.478;10.986;2023-01-29T06:56:27;99595.47;;;-0.96;100.00
70815;BME280;58428;49.478;10.986;2023-01-29T06:58:54;99597.25;;;-1.08;100.00
70815;BME280;58428;49.478;10.986;2023-01-29T07:01:20;99596.47;;;-0.97;100.00
70815;BME280;58428;49.478;10.986;2023-01-29T07:03:48;99600.50;;;-1.06;100.00
70815;BME280;58428;49.478;10.986;2023-01-29T07:06:14;99599.66;;;-1.07;100.00
70815;BME280;58428;49.478;10.986;2023-01-29T07:08:40;99607.50;;;-1.11;100.00
70815;BME280;58428;49.478;10.986;2023-01-29T07:11:06;99611.63;;;-1.15;100.00
70815;BME280;58428;49.478;10.986;2023-01-29T07:13:32;99615.25;;;-1.10;100.00
70815;BME280;58428;49.478;10.986;2023-01-29T07:16:03;99620.03;;;-1.18;100.00
70815;BME280;58428;49.478;10.986;2023-01-29T07:18:33;99620.03;;;-1.18;100.00
70815;BME280;58428;49.478;10.986;2023-01-29T07:21:03;99615.47;;;-1.11;100.00
70815;BME280;58428;49.478;10.986;2023-01-29T07:23:29;99615.19;;;-1.21;100.00
70815;BME280;58428;49.478;10.986;2023-01-29T07:25:55;99614.06;;;-1.14;100.00
70815;BME280;58428;49.478;10.986;2023-01-29T07:28:20;99610.06;;;-1.05;100.00
70815;BME280;58428;49.478;10.986;2023-01-29T07:30:46;99613.38;;;-0.92;100.00
70815;BME280;58428;49.478;10.986;2023-01-29T07:33:15;99606.84;;;-0.78;100.00
70815;BME280;58428;49.478;10.986;2023-01-29T07:35:43;99604.69;;;-0.70;100.00
70815;BME280;58428;49.478;10.986;2023-01-29T07:38:14;99602.16;;;-0.65;100.00
70815;BME280;58428;49.478;10.986;2023-01-29T07:40:43;99603.31;;;-0.61;100.00
70815;BME280;58428;49.478;10.986;2023-01-29T07:43:09;99599.53;;;-0.53;100.00
70815;BME280;58428;49.478;10.986;2023-01-29T07:45:37;99605.03;;;-0.66;100.00
70815;BME280;58428;49.478;10.986;2023-01-29T07:48:08;99609.00;;;-0.86;100.00
70815;BME280;58428;49.478;10.986;2023-01-29T07:50:35;99611.25;;;-0.72;100.00
70815;BME280;58428;49.478;10.986;2023-01-29T07:53:01;99610.03;;;-0.58;100.00
70815;BME280;58428;49.478;10.986;2023-01-29T07:55:32;99610.22;;;-0.42;100.00
70815;BME280;58428;49.478;10.986;2023-01-29T07:58:01;99625.94;;;-0.40;100.00
70815;BME280;58428;49.478;10.986;2023-01-29T08:00:28;99626.69;;;-0.51;100.00
70815;BME280;58428;49.478;10.986;2023-01-29T08:03:00;99632.13;;;-0.58;100.00
70815;BME280;58428;49.478;10.986;2023-01-29T08:05:26;99631.53;;;-0.60;100.00
70815;BME280;58428;49.478;10.986;2023-01-29T08:07:52;99637.00;;;-0.73;100.00
70815;BME280;58428;49.478;10.986;2023-01-29T08:10:18;99636.59;;;-0.70;100.00
70815;BME280;58428;49.478;10.986;2023-01-29T08:12:43;99646.97;;;-0.68;100.00
70815;BME280;58428;49.478;10.986;2023-01-29T08:15:09;99645.88;;;-0.78;100.00
70815;BME280;58428;49.478;10.986;2023-01-29T08:17:36;99646.56;;;-0.83;100.00
70815;BME280;58428;49.478;10.986;2023-01-29T08:20:05;99638.56;;;-0.65;100.00
70815;BME280;58428;49.478;10.986;2023-01-29T08:22:32;99636.16;;;-0.55;100.00
70815;BME280;58428;49.478;10.986;2023-01-29T08:24:57;99643.59;;;-0.75;100.00
70815;BME280;58428;49.478;10.986;2023-01-29T08:27:23;99646.97;;;-0.68;100.00
70815;BME280;58428;49.478;10.986;2023-01-29T08:29:48;99634.56;;;-0.45;100.00
70815;BME280;58428;49.478;10.986;2023-01-29T08:32:14;99638.56;;;-0.25;100.00
70815;BME280;58428;49.478;10.986;2023-01-29T08:34:41;99636.84;;;-0.08;100.00
70815;BME280;58428;49.478;10.986;2023-01-29T08:37:06;99642.09;;;-0.01;100.00
70815;BME280;58428;49.478;10.986;2023-01-29T08:39:31;99644.28;;;0.01;100.00
70815;BME280;58428;49.478;10.986;2023-01-29T08:41:57;99638.28;;;0.17;100.00
70815;BME280;58428;49.478;10.986;2023-01-29T08:44:24;99647.16;;;-0.11;100.00
70815;BME280;58428;49.478;10.986;2023-01-29T08:46:50;99647.97;;;-0.11;100.00
70815;BME280;58428;49.478;10.986;2023-01-29T08:49:16;99647.63;;;-0.03;100.00
70815;BME280;58428;49.478;10.986;2023-01-29T08:51:41;99652.03;;;0.03;100.00
70815;BME280;58428;49.478;10.986;2023-01-29T08:54:07;99649.25;;;0.21;100.00
70815;BME280;58428;49.478;10.986;2023-01-29T08:56:33;99649.59;;;0.13;100.00
70815;BME280;58428;49.478;10.986;2023-01-29T08:58:59;99643.25;;;0.14;100.00
70815;BME280;58428;49.478;10.986;2023-01-29T09:01:26;99640.00;;;0.35;100.00
70815;BME280;58428;49.478;10.986;2023-01-29T09:03:52;99641.97;;;0.50;100.00
70815;BME280;58428;49.478;10.986;2023-01-29T09:06:18;99635.75;;;0.56;100.00
70815;BME280;58428;49.478;10.986;2023-01-29T09:08:44;99640.47;;;0.66;100.00
70815;BME280;58428;49.478;10.986;2023-01-29T09:11:11;99643.38;;;0.64;100.00
70815;BME280;58428;49.478;10.986;2023-01-29T09:13:38;99640.09;;;0.73;100.00
70815;BME280;58428;49.478;10.986;2023-01-29T09:16:04;99639.88;;;0.64;100.00
70815;BME280;58428;49.478;10.986;2023-01-29T09:18:29;99642.69;;;0.57;100.00
70815;BME280;58428;49.478;10.986;2023-01-29T09:20:56;99646.97;;;0.58;100.00
70815;BME280;58428;49.478;10.986;2023-01-29T09:23:22;99648.69;;;0.64;100.00
70815;BME280;58428;49.478;10.986;2023-01-29T09:25:52;99649.88;;;0.57;100.00
70815;BME280;58428;49.478;10.986;2023-01-29T09:28:18;99645.34;;;0.46;100.00
70815;BME280;58428;49.478;10.986;2023-01-29T09:30:44;99645.22;;;0.30;100.00
70815;BME280;58428;49.478;10.986;2023-01-29T09:33:11;99634.25;;;0.37;100.00
70815;BME280;58428;49.478;10.986;2023-01-29T09:35:39;99633.09;;;0.56;100.00
70815;BME280;58428;49.478;10.986;2023-01-29T09:38:06;99634.91;;;0.67;100.00
70815;BME280;58428;49.478;10.986;2023-01-29T09:46:10;99620.00;;;0.21;100.00
70815;BME280;58428;49.478;10.986;2023-01-29T09:48:41;99623.03;;;0.36;100.00
70815;BME280;58428;49.478;10.986;2023-01-29T09:51:18;99603.81;;;0.56;100.00
70815;BME280;58428;49.478;10.986;2023-01-29T09:54:20;99603.88;;;0.73;100.00
70815;BME280;58428;49.478;10.986;2023-01-29T09:56:53;99605.72;;;0.83;100.00
70815;BME280;58428;49.478;10.986;2023-01-29T09:59:23;99605.81;;;0.88;100.00
70815;BME280;58428;49.478;10.986;2023-01-29T10:02:21;99597.19;;;0.70;100.00
70815;BME280;58428;49.478;10.986;2023-01-29T10:13:26;99592.94;;;1.24;100.00
70815;BME280;58428;49.478;10.986;2023-01-29T10:16:26;99611.13;;;1.27;100.00
70815;BME280;58428;49.478;10.986;2023-01-29T10:19:12;99620.88;;;1.22;100.00
70815;BME280;58428;49.478;10.986;2023-01-29T10:25:06;99611.31;;;1.09;100.00
70815;BME280;58428;49.478;10.986;2023-01-29T10:27:37;99605.41;;;1.08;100.00
70815;BME280;58428;49.478;10.986;2023-01-29T10:30:25;99608.81;;;0.92;100.00
70815;BME280;58428;49.478;10.986;2023-01-29T10:32:54;99614.38;;;0.90;100.00
70815;BME280;58428;49.478;10.986;2023-01-29T10:35:30;99621.03;;;1.04;100.00
70815;BME280;58428;49.478;10.986;2023-01-29T10:38:24;99625.78;;;1.13;100.00
70815;BME280;58428;49.478;10.986;2023-01-29T10:43:53;99632.97;;;1.41;100.00
70815;BME280;58428;49.478;10.986;2023-01-29T11:00:20;99592.56;;;1.32;100.00
70815;BME280;58428;49.478;10.986;2023-01-29T11:02:49;99587.47;;;1.47;100.00
70815;BME280;58428;49.478;10.986;2023-01-29T11:05:41;99585.66;;;1.47;100.00
70815;BME280;58428;49.478;10.986;2023-01-29T11:08:15;99572.88;;;1.49;100.00
70815;BME280;58428;49.478;10.986;2023-01-29T11:10:52;99564.03;;;1.33;100.00
70815;BME280;58428;49.478;10.986;2023-01-29T11:13:22;99556.22;;;1.26;100.00
70815;BME280;58428;49.478;10.986;2023-01-29T11:15:51;99557.25;;;1.25;100.00
70815;BME280;58428;49.478;10.986;2023-01-29T11:18:18;99554.56;;;1.25;100.00
70815;BME280;58428;49.478;10.986;2023-01-29T11:20:44;99551.63;;;1.38;100.00
70815;BME280;58428;49.478;10.986;2023-01-29T11:26:05;99539.38;;;1.26;100.00
70815;BME280;58428;49.478;10.986;2023-01-29T11:28:44;99525.13;;;1.32;100.00
70815;BME280;58428;49.478;10.986;2023-01-29T11:34:19;99509.53;;;1.56;100.00
70815;BME280;58428;49.478;10.986;2023-01-29T11:36:45;99518.00;;;1.37;100.00
70815;BME280;58428;49.478;10.986;2023-01-29T11:39:17;99509.78;;;1.55;100.00
70815;BME280;58428;49.478;10.986;2023-01-29T11:41:54;99491.94;;;1.55;100.00
70815;BME280;58428;49.478;10.986;2023-01-29T11:44:44;99492.72;;;1.72;100.00
70815;BME280;58428;49.478;10.986;2023-01-29T11:50:16;99495.06;;;1.36;100.00
70815;BME280;58428;49.478;10.986;2023-01-29T11:52:46;99481.66;;;1.47;100.00
70815;BME280;58428;49.478;10.986;2023-01-29T11:57:45;99495.91;;;1.53;100.00
70815;BME280;58428;49.478;10.986;2023-01-29T12:00:24;99487.31;;;1.67;100.00
70815;BME280;58428;49.478;10.986;2023-01-29T12:05:28;99464.84;;;1.47;100.00
70815;BME280;58428;49.478;10.986;2023-01-29T12:07:58;99467.84;;;1.67;100.00
70815;BME280;58428;49.478;10.986;2023-01-29T12:10:35;99456.34;;;1.66;100.00
70815;BME280;58428;49.478;10.986;2023-01-29T12:15:37;99454.66;;;1.77;100.00
70815;BME280;58428;49.478;10.986;2023-01-29T12:18:15;99453.88;;;1.97;100.00
70815;BME280;58428;49.478;10.986;2023-01-29T12:20:59;99451.31;;;2.23;100.00
70815;BME280;58428;49.478;10.986;2023-01-29T12:23:56;99431.75;;;2.39;100.00
70815;BME280;58428;49.478;10.986;2023-01-29T12:26:50;99433.38;;;2.19;100.00
70815;BME280;58428;49.478;10.986;2023-01-29T12:35:25;99422.38;;;2.37;100.00
70815;BME280;58428;49.478;10.986;2023-01-29T12:38:17;99417.69;;;2.49;100.00
70815;BME280;58428;49.478;10.986;2023-01-29T12:40:52;99410.06;;;2.36;100.00
70815;BME280;58428;49.478;10.986;2023-01-29T12:43:28;99404.44;;;2.32;100.00
70815;BME280;58428;49.478;10.986;2023-01-29T12:45:59;99393.66;;;2.49;100.00
70815;BME280;58428;49.478;10.986;2023-01-29T12:48:32;99395.16;;;2.18;100.00
70815;BME280;58428;49.478;10.986;2023-01-29T12:51:06;99389.78;;;2.35;100.00
70815;BME280;58428;49.478;10.986;2023-01-29T12:53:40;99384.59;;;2.50;100.00
70815;BME280;58428;49.478;10.986;2023-01-29T12:56:15;99384.91;;;2.53;100.00
70815;BME280;58428;49.478;10.986;2023-01-29T12:58:46;99393.63;;;2.01;100.00
70815;BME280;58428;49.478;10.986;2023-01-29T13:01:18;99381.09;;;2.02;100.00
70815;BME280;58428;49.478;10.986;2023-01-29T13:03:51;99374.81;;;2.13;100.00
70815;BME280;58428;49.478;10.986;2023-01-29T13:06:22;99368.56;;;2.23;100.00
70815;BME280;58428;49.478;10.986;2023-01-29T13:08:58;99373.66;;;2.25;100.00
70815;BME280;58428;49.478;10.986;2023-01-29T13:11:38;99385.00;;;2.37;100.00
70815;BME280;58428;49.478;10.986;2023-01-29T13:17:14;99383.22;;;2.21;100.00
70815;BME280;58428;49.478;10.986;2023-01-29T13:19:48;99376.38;;;2.09;100.00
70815;BME280;58428;49.478;10.986;2023-01-29T13:22:24;99379.44;;;2.17;100.00
70815;BME280;58428;49.478;10.986;2023-01-29T13:24:54;99377.88;;;1.62;100.00
70815;BME280;58428;49.478;10.986;2023-01-29T13:27:24;99383.75;;;1.81;100.00
70815;BME280;58428;49.478;10.986;2023-01-29T13:29:51;99379.66;;;1.94;100.00
70815;BME280;58428;49.478;10.986;2023-01-29T13:32:26;99367.38;;;1.93;100.00
70815;BME280;58428;49.478;10.986;2023-01-29T13:34:58;99367.19;;;1.79;100.00
70815;BME280;58428;49.478;10.986;2023-01-29T13:39:59;99363.16;;;1.39;100.00
70815;BME280;58428;49.478;10.986;2023-01-29T13:42:49;99358.13;;;1.26;100.00
70815;BME280;58428;49.478;10.986;2023-01-29T13:45:23;99356.56;;;1.09;100.00
70815;BME280;58428;49.478;10.986;2023-01-29T13:47:51;99364.63;;;1.13;100.00
70815;BME280;58428;49.478;10.986;2023-01-29T13:50:31;99353.50;;;1.16;100.00
70815;BME280;58428;49.478;10.986;2023-01-29T13:53:01;99362.69;;;1.25;100.00
70815;BME280;58428;49.478;10.986;2023-01-29T13:55:35;99364.56;;;1.09;100.00
70815;BME280;58428;49.478;10.986;2023-01-29T13:58:07;99360.75;;;1.21;100.00
70815;BME280;58428;49.478;10.986;2023-01-29T14:08:44;99357.53;;;1.56;100.00
70815;BME280;58428;49.478;10.986;2023-01-29T14:13:44;99369.53;;;1.75;100.00
70815;BME280;58428;49.478;10.986;2023-01-29T14:18:45;99366.31;;;1.94;100.00
70815;BME280;58428;49.478;10.986;2023-01-29T14:26:47;99338.72;;;1.84;100.00
70815;BME280;58428;49.478;10.986;2023-01-29T14:29:23;99339.13;;;1.97;100.00
70815;BME280;58428;49.478;10.986;2023-01-29T14:37:35;99334.75;;;1.49;100.00
70815;BME280;58428;49.478;10.986;2023-01-29T14:43:05;99334.56;;;1.34;100.00
70815;BME280;58428;49.478;10.986;2023-01-29T14:45:34;99339.16;;;1.39;100.00
70815;BME280;58428;49.478;10.986;2023-01-29T14:58:46;99326.66;;;1.23;100.00
70815;BME280;58428;49.478;10.986;2023-01-29T15:03:49;99325.91;;;1.27;100.00
70815;BME280;58428;49.478;10.986;2023-01-29T15:06:26;99323.59;;;1.31;100.00
70815;BME280;58428;49.478;10.986;2023-01-29T15:09:01;99336.94;;;1.14;100.00
70815;BME280;58428;49.478;10.986;2023-01-29T15:11:55;99321.66;;;1.10;100.00
70815;BME280;58428;49.478;10.986;2023-01-29T15:14:28;99320.31;;;1.08;100.00
70815;BME280;58428;49.478;10.986;2023-01-29T15:17:40;99322.63;;;1.04;100.00
70815;BME280;58428;49.478;10.986;2023-01-29T15:19:43;99330.31;;;1.01;100.00
70815;BME280;58428;49.478;10.986;2023-01-29T15:22:12;99320.16;;;0.98;100.00
70815;BME280;58428;49.478;10.986;2023-01-29T15:24:38;99319.03;;;0.94;100.00
70815;BME280;58428;49.478;10.986;2023-01-29T15:27:08;99316.41;;;0.99;100.00
70815;BME280;58428;49.478;10.986;2023-01-29T15:29:36;99319.34;;;0.81;100.00
70815;BME280;58428;49.478;10.986;2023-01-29T15:32:02;99313.03;;;0.87;100.00
70815;BME280;58428;49.478;10.986;2023-01-29T15:34:29;99315.13;;;0.85;100.00